createdAt,value
2023-05-09T00:01:53.896Z,101257.13
2023-05-09T00:04:21.192Z,101262.16
2023-05-09T00:06:48.454Z,101265.63
2023-05-09T00:09:15.620Z,101257.16
2023-05-09T00:11:43.427Z,101259.09
2023-05-09T00:14:12.433Z,101252.50
2023-05-09T00:16:40.171Z,101242.97
2023-05-09T00:19:07.618Z,101237.75
2023-05-09T00:21:34.902Z,101235.78
2023-05-09T00:24:02.189Z,101225.66
2023-05-09T00:26:29.412Z,101225.56
2023-05-09T00:28:56.592Z,101222.06
2023-05-09T00:31:23.831Z,101219.06
2023-05-09T00:33:50.984Z,101222.22
2023-05-09T00:36:18.276Z,101222.75
2023-05-09T00:38:45.493Z,101222.97
2023-05-09T00:41:12.773Z,101218.81
2023-05-09T00:43:39.985Z,101217.81
2023-05-09T00:46:07.325Z,101210.16
2023-05-09T00:48:35.222Z,101207.84
2023-05-09T00:51:02.566Z,101203.41
2023-05-09T00:53:29.932Z,101208.59
2023-05-09T00:55:57.661Z,101193.63
2023-05-09T00:58:25.594Z,101201.38
2023-05-09T01:00:52.925Z,101190.75
2023-05-09T01:03:20.259Z,101190.72
2023-05-09T01:06:13.527Z,101185.22
2023-05-09T01:08:53.223Z,101185.41
2023-05-09T01:11:33.211Z,101181.47
2023-05-09T01:14:21.234Z,101173.91
2023-05-09T01:17:03.468Z,101164.50
2023-05-09T01:19:51.733Z,101165.41
2023-05-09T01:22:20.884Z,101158.72
2023-05-09T01:24:54.479Z,101159.53
2023-05-09T01:27:44.592Z,101151.97
2023-05-09T01:30:13.812Z,101151.19
2023-05-09T01:32:43.175Z,101149.00
2023-05-09T01:35:14.402Z,101147.94
2023-05-09T01:37:43.623Z,101147.97
2023-05-09T01:40:14.655Z,101145.53
2023-05-09T01:42:54.850Z,101144.78
2023-05-09T01:45:22.563Z,101138.19
2023-05-09T01:47:50.471Z,101141.19
2023-05-09T01:50:19.179Z,101128.34
2023-05-09T01:52:52.523Z,101131.13
2023-05-09T01:55:21.816Z,101133.56
2023-05-09T01:57:50.150Z,101132.25
2023-05-09T02:00:19.369Z,101130.03
2023-05-09T02:02:46.980Z,101131.84
2023-05-09T02:05:17.170Z,101128.44
2023-05-09T02:07:46.022Z,101126.13
2023-05-09T02:10:13.286Z,101128.94
2023-05-09T02:12:40.553Z,101122.41
2023-05-09T02:15:08.888Z,101124.03
2023-05-09T02:17:40.450Z,101117.19
2023-05-09T02:20:10.156Z,101125.19
2023-05-09T02:22:37.923Z,101127.50
2023-05-09T02:25:07.277Z,101122.28
2023-05-09T02:27:34.996Z,101124.38
2023-05-09T02:30:04.704Z,101125.31
2023-05-09T02:32:34.442Z,101116.00
2023-05-09T02:35:02.244Z,101120.66
2023-05-09T02:37:29.912Z,101111.41
2023-05-09T02:39:57.236Z,101118.78
2023-05-09T02:42:26.353Z,101116.38
2023-05-09T02:44:53.776Z,101118.91
2023-05-09T02:47:21.671Z,101110.31
2023-05-09T02:49:48.882Z,101113.59
2023-05-09T02:52:16.746Z,101112.22
2023-05-09T02:54:44.123Z,101106.88
2023-05-09T02:57:11.432Z,101108.72
2023-05-09T02:59:38.590Z,101109.31
2023-05-09T03:02:06.566Z,101106.19
2023-05-09T03:04:34.148Z,101091.75
2023-05-09T03:07:01.571Z,101094.31
2023-05-09T03:09:32.628Z,101095.94
2023-05-09T03:12:00.697Z,101093.97
2023-05-09T03:14:27.911Z,101092.59
2023-05-09T03:16:55.420Z,101105.72
2023-05-09T03:19:31.393Z,101098.38
2023-05-09T03:21:58.716Z,101092.13
2023-05-09T03:24:28.221Z,101095.50
2023-05-09T03:26:55.600Z,101090.63
2023-05-09T03:29:23.008Z,101093.84
2023-05-09T03:31:50.469Z,101088.88
2023-05-09T03:34:17.931Z,101080.06
2023-05-09T03:36:45.539Z,101090.03
2023-05-09T03:39:15.170Z,101082.72
2023-05-09T03:41:45.235Z,101078.19
2023-05-09T03:44:13.259Z,101076.81
2023-05-09T03:46:40.592Z,101074.84
2023-05-09T03:49:08.229Z,101073.69
2023-05-09T03:51:36.912Z,101071.97
2023-05-09T03:54:08.283Z,101074.03
2023-05-09T03:56:36.053Z,101070.78
2023-05-09T03:59:03.296Z,101066.28
2023-05-09T04:01:31.883Z,101066.03
2023-05-09T04:04:00.663Z,101064.84
2023-05-09T04:06:30.730Z,101064.34
2023-05-09T04:08:58.806Z,101056.16
2023-05-09T04:11:26.936Z,101056.84
2023-05-09T04:13:55.959Z,101058.91
2023-05-09T04:16:28.397Z,101053.19
2023-05-09T04:18:55.697Z,101055.59
2023-05-09T04:21:22.909Z,101049.00
2023-05-09T04:23:54.006Z,101047.22
2023-05-09T04:26:28.703Z,101048.44
2023-05-09T04:28:57.150Z,101050.09
2023-05-09T04:31:24.502Z,101046.91
2023-05-09T04:33:52.823Z,101035.31
2023-05-09T04:36:21.171Z,101032.72
2023-05-09T04:38:48.752Z,101033.97
2023-05-09T04:41:20.229Z,101022.22
2023-05-09T04:43:47.801Z,101022.56
2023-05-09T04:46:15.511Z,101019.31
2023-05-09T04:48:43.081Z,101018.28
2023-05-09T04:51:10.902Z,101023.50
2023-05-09T04:53:38.258Z,101022.63
2023-05-09T04:56:06.646Z,101014.78
2023-05-09T04:58:38.540Z,101012.06
2023-05-09T05:01:09.751Z,101002.41
2023-05-09T05:03:37.328Z,101000.28
2023-05-09T05:06:05.848Z,101004.75
2023-05-09T05:08:33.573Z,100999.44
2023-05-09T05:11:01.394Z,100996.06
2023-05-09T05:13:29.083Z,100999.16
2023-05-09T05:16:00.023Z,100998.22
2023-05-09T05:18:27.304Z,100994.75
2023-05-09T05:20:55.038Z,100991.91
2023-05-09T05:23:22.837Z,100986.31
2023-05-09T05:25:53.522Z,100986.16
2023-05-09T05:28:21.134Z,100981.38
2023-05-09T05:30:48.561Z,100985.16
2023-05-09T05:33:15.923Z,100986.50
2023-05-09T05:35:43.842Z,100978.31
2023-05-09T05:38:11.343Z,100975.06
2023-05-09T05:40:39.349Z,100971.25
2023-05-09T05:43:07.762Z,100980.38
2023-05-09T05:45:37.618Z,100973.25
2023-05-09T05:48:07.101Z,100978.72
2023-05-09T05:50:34.518Z,100974.38
2023-05-09T05:53:02.350Z,100974.31
2023-05-09T05:55:29.759Z,100964.50
2023-05-09T05:57:57.602Z,100967.34
2023-05-09T06:00:25.648Z,100962.09
2023-05-09T06:03:00.558Z,100962.72
2023-05-09T06:05:44.148Z,100958.34
2023-05-09T06:08:12.224Z,100956.06
2023-05-09T06:10:39.685Z,100946.28
2023-05-09T06:13:07.286Z,100952.78
2023-05-09T06:15:36.201Z,100947.44
2023-05-09T06:18:03.700Z,100949.31
2023-05-09T06:20:31.031Z,100945.66
2023-05-09T06:22:58.343Z,100947.94
2023-05-09T06:25:25.597Z,100939.34
2023-05-09T06:27:54.561Z,100936.16
2023-05-09T06:30:26.464Z,100934.47
2023-05-09T06:32:55.458Z,100930.88
2023-05-09T06:35:23.109Z,100922.69
2023-05-09T06:37:50.770Z,100923.53
2023-05-09T06:40:18.059Z,100927.31
2023-05-09T06:42:45.426Z,100919.84
2023-05-09T06:45:13.034Z,100922.53
2023-05-09T06:47:40.996Z,100918.13
2023-05-09T06:50:08.704Z,100917.16
2023-05-09T06:52:36.354Z,100910.53
2023-05-09T06:55:04.372Z,100909.25
2023-05-09T06:57:31.570Z,100908.22
2023-05-09T06:59:58.921Z,100909.38
2023-05-09T07:02:26.113Z,100901.47
2023-05-09T07:04:53.501Z,100890.06
2023-05-09T07:07:20.753Z,100895.03
2023-05-09T07:09:50.723Z,100885.94
2023-05-09T07:12:20.090Z,100890.31
2023-05-09T07:14:47.312Z,100889.09
2023-05-09T07:17:22.835Z,100871.03
2023-05-09T07:19:51.696Z,100876.22
2023-05-09T07:22:19.222Z,100870.16
2023-05-09T07:24:46.692Z,100859.81
2023-05-09T07:27:16.633Z,100858.41
2023-05-09T07:29:43.966Z,100865.00
2023-05-09T07:32:11.333Z,100854.28
2023-05-09T07:34:39.161Z,100858.16
2023-05-09T07:37:06.445Z,100848.09
2023-05-09T07:39:33.907Z,100844.75
2023-05-09T07:42:01.254Z,100840.16
2023-05-09T07:44:28.622Z,100842.44
2023-05-09T07:46:55.938Z,100843.47
2023-05-09T07:49:23.195Z,100843.59
2023-05-09T07:51:51.689Z,100837.16
2023-05-09T07:54:19.345Z,100835.97
2023-05-09T07:56:46.615Z,100829.31
2023-05-09T07:59:14.039Z,100833.47
2023-05-09T08:01:41.329Z,100836.50
2023-05-09T08:04:09.699Z,100834.72
2023-05-09T08:06:37.420Z,100828.56
2023-05-09T08:09:07.356Z,100830.22
2023-05-09T08:11:35.868Z,100826.66
2023-05-09T08:14:03.353Z,100822.59
2023-05-09T08:16:30.819Z,100821.03
2023-05-09T08:18:58.241Z,100818.03
2023-05-09T08:21:26.573Z,100817.38
2023-05-09T08:23:53.890Z,100814.19
2023-05-09T08:26:22.676Z,100807.25
2023-05-09T08:28:50.024Z,100803.25
2023-05-09T08:31:17.306Z,100806.03
2023-05-09T08:33:45.136Z,100798.00
2023-05-09T08:36:12.272Z,100798.13
2023-05-09T08:38:40.600Z,100796.31
2023-05-09T08:41:07.975Z,100789.50
2023-05-09T08:43:35.766Z,100783.44
2023-05-09T08:46:12.523Z,100785.97
2023-05-09T08:48:39.942Z,100777.97
2023-05-09T08:51:07.350Z,100779.03
2023-05-09T08:53:35.104Z,100784.47
2023-05-09T08:56:05.275Z,100770.25
2023-05-09T08:58:32.477Z,100774.75
2023-05-09T09:00:59.693Z,100774.19
2023-05-09T09:03:27.341Z,100771.47
2023-05-09T09:05:54.984Z,100772.09
2023-05-09T09:08:23.179Z,100767.25
2023-05-09T09:10:50.487Z,100762.16
2023-05-09T09:13:18.418Z,100754.66
2023-05-09T09:15:47.101Z,100759.31
2023-05-09T09:18:29.845Z,100755.94
2023-05-09T09:21:00.284Z,100751.19
2023-05-09T09:23:29.090Z,100747.13
2023-05-09T09:26:00.951Z,100744.31
2023-05-09T09:28:28.496Z,100759.53
2023-05-09T09:30:55.980Z,100753.13
2023-05-09T09:33:25.026Z,100762.75
2023-05-09T09:35:54.362Z,100748.06
2023-05-09T09:38:22.743Z,100759.31
2023-05-09T09:40:52.661Z,100758.47
2023-05-09T09:43:20.073Z,100758.69
2023-05-09T09:45:51.286Z,100754.06
2023-05-09T09:48:19.026Z,100755.47
2023-05-09T09:50:48.445Z,100748.97
2023-05-09T09:53:16.357Z,100745.50
2023-05-09T09:55:51.252Z,100745.16
2023-05-09T09:58:22.102Z,100741.69
2023-05-09T10:01:04.590Z,100738.81
2023-05-09T10:03:42.683Z,100733.72
2023-05-09T10:06:11.778Z,100735.66
2023-05-09T10:08:39.899Z,100738.53
2023-05-09T10:11:07.543Z,100732.97
2023-05-09T10:13:38.853Z,100729.28
2023-05-09T10:16:06.658Z,100724.38
2023-05-09T10:18:34.556Z,100724.31
2023-05-09T10:21:03.962Z,100720.88
2023-05-09T10:23:33.315Z,100718.59
2023-05-09T10:26:15.661Z,100715.91
2023-05-09T10:28:45.642Z,100710.56
2023-05-09T10:31:22.477Z,100708.31
2023-05-09T10:33:50.671Z,100711.31
2023-05-09T10:36:23.201Z,100697.44
2023-05-09T10:38:51.712Z,100699.09
2023-05-09T10:41:20.159Z,100699.44
2023-05-09T10:43:48.432Z,100687.16
2023-05-09T10:46:17.380Z,100692.81
2023-05-09T10:48:45.309Z,100697.47
2023-05-09T10:51:13.108Z,100690.97
2023-05-09T10:53:46.217Z,100683.25
2023-05-09T10:56:35.550Z,100681.47
2023-05-09T10:59:03.442Z,100682.06
2023-05-09T11:01:39.338Z,100675.78
2023-05-09T11:04:15.017Z,100682.72
2023-05-09T11:06:51.380Z,100673.22
2023-05-09T11:09:28.592Z,100674.41
2023-05-09T11:11:57.993Z,100673.13
2023-05-09T11:14:31.331Z,100667.25
2023-05-09T11:17:00.211Z,100672.53
2023-05-09T11:19:53.677Z,100663.16
2023-05-09T11:22:28.835Z,100662.72
2023-05-09T11:25:07.469Z,100656.13
2023-05-09T11:27:49.756Z,100662.50
2023-05-09T11:30:19.136Z,100661.91
2023-05-09T11:32:50.158Z,100653.03
2023-05-09T11:35:20.741Z,100664.53
2023-05-09T11:38:05.586Z,100653.53
2023-05-09T11:40:34.301Z,100654.69
2023-05-09T11:43:02.080Z,100657.06
2023-05-09T11:45:31.089Z,100659.06
2023-05-09T11:47:58.884Z,100654.28
2023-05-09T11:50:26.265Z,100644.19
2023-05-09T11:52:54.176Z,100655.50
2023-05-09T11:55:32.672Z,100650.53
2023-05-09T11:58:00.031Z,100652.22
2023-05-09T12:00:27.606Z,100654.56
2023-05-09T12:02:54.992Z,100651.00
2023-05-09T12:05:23.414Z,100656.84
2023-05-09T12:07:52.301Z,100648.44
2023-05-09T12:10:21.198Z,100653.78
2023-05-09T12:12:53.177Z,100642.84
2023-05-09T12:15:21.851Z,100646.19
2023-05-09T12:18:07.943Z,100654.47
2023-05-09T12:20:41.392Z,100656.59
2023-05-09T12:23:14.229Z,100651.94
2023-05-09T12:25:55.645Z,100653.19
2023-05-09T12:28:23.836Z,100649.63
2023-05-09T12:30:52.568Z,100645.50
2023-05-09T12:33:20.161Z,100646.75
2023-05-09T12:36:03.265Z,100645.50
2023-05-09T12:38:30.604Z,100649.44
2023-05-09T12:41:05.652Z,100651.75
2023-05-09T12:43:34.623Z,100655.00
2023-05-09T12:46:02.880Z,100655.22
2023-05-09T12:48:35.570Z,100659.00
2023-05-09T12:51:04.209Z,100655.53
2023-05-09T12:53:31.520Z,100644.41
2023-05-09T12:56:03.845Z,100646.84
2023-05-09T12:58:34.078Z,100665.41
2023-05-09T13:01:03.922Z,100656.84
2023-05-09T13:03:37.843Z,100654.63
2023-05-09T13:06:06.577Z,100650.94
2023-05-09T13:08:33.896Z,100650.31
2023-05-09T13:11:14.785Z,100647.81
2023-05-09T13:13:43.136Z,100639.28
2023-05-09T13:16:11.666Z,100627.94
2023-05-09T13:18:40.165Z,100635.97
2023-05-09T13:21:07.361Z,100637.81
2023-05-09T13:23:34.672Z,100642.31
2023-05-09T13:26:01.942Z,100638.84
2023-05-09T13:28:29.172Z,100639.44
2023-05-09T13:30:56.446Z,100631.19
2023-05-09T13:33:26.557Z,100634.34
2023-05-09T13:35:54.434Z,100635.28
2023-05-09T13:38:21.808Z,100636.56
2023-05-09T13:40:49.892Z,100629.47
2023-05-09T13:43:17.373Z,100625.78
2023-05-09T13:45:44.571Z,100625.72
2023-05-09T13:48:11.938Z,100616.91
2023-05-09T13:50:39.313Z,100615.19
2023-05-09T13:53:06.573Z,100616.88
2023-05-09T13:55:34.974Z,100606.41
2023-05-09T13:58:02.205Z,100606.88
2023-05-09T14:00:29.533Z,100605.72
2023-05-09T14:02:56.759Z,100605.09
2023-05-09T14:05:24.104Z,100608.22
2023-05-09T14:07:51.562Z,100600.63
2023-05-09T14:10:18.966Z,100601.38
2023-05-09T14:12:47.456Z,100609.34
2023-05-09T14:15:14.795Z,100605.59
2023-05-09T14:17:43.615Z,100606.31
2023-05-09T14:20:11.241Z,100612.41
2023-05-09T14:22:38.458Z,100602.19
2023-05-09T14:25:06.322Z,100615.13
2023-05-09T14:27:36.911Z,100611.88
2023-05-09T14:30:04.884Z,100600.22
2023-05-09T14:32:32.742Z,100611.50
2023-05-09T14:35:00.033Z,100599.41
2023-05-09T14:37:27.246Z,100611.88
2023-05-09T14:39:54.559Z,100609.28
2023-05-09T14:42:21.793Z,100602.44
2023-05-09T14:44:50.000Z,100605.00
2023-05-09T14:47:17.796Z,100596.88
2023-05-09T14:49:45.114Z,100607.56
2023-05-09T14:52:13.659Z,100598.31
2023-05-09T14:54:42.068Z,100599.19
2023-05-09T14:57:09.372Z,100596.78
2023-05-09T14:59:37.303Z,100597.09
2023-05-09T15:02:04.719Z,100597.81
2023-05-09T15:04:32.159Z,100590.84
2023-05-09T15:06:59.880Z,100601.47
2023-05-09T15:09:27.324Z,100601.19
2023-05-09T15:11:55.068Z,100603.28
2023-05-09T15:14:22.392Z,100596.38
2023-05-09T15:16:52.633Z,100596.66
2023-05-09T15:19:21.936Z,100593.88
2023-05-09T15:21:49.245Z,100588.47
2023-05-09T15:24:16.602Z,100609.00
2023-05-09T15:26:44.138Z,100593.69
2023-05-09T15:29:11.587Z,100593.03
2023-05-09T15:31:39.086Z,100597.34
2023-05-09T15:34:06.499Z,100595.75
2023-05-09T15:36:36.272Z,100598.91
2023-05-09T15:39:05.049Z,100589.66
2023-05-09T15:41:32.368Z,100597.22
2023-05-09T15:43:59.662Z,100586.19
2023-05-09T15:46:27.246Z,100587.09
2023-05-09T15:48:56.122Z,100576.63
2023-05-09T15:51:23.510Z,100570.34
2023-05-09T15:53:51.085Z,100572.41
2023-05-09T15:56:18.216Z,100574.34
2023-05-09T15:58:46.097Z,100565.47
2023-05-09T16:01:14.636Z,100565.78
2023-05-09T16:03:42.204Z,100564.94
2023-05-09T16:06:09.509Z,100548.56
2023-05-09T16:08:37.608Z,100552.44
2023-05-09T16:11:05.268Z,100548.34
2023-05-09T16:13:34.323Z,100561.13
2023-05-09T16:16:03.331Z,100562.34
2023-05-09T16:18:30.622Z,100564.47
2023-05-09T16:20:57.942Z,100572.94
2023-05-09T16:23:25.995Z,100562.94
2023-05-09T16:25:53.216Z,100554.69
2023-05-09T16:28:23.438Z,100562.94
2023-05-09T16:30:51.417Z,100560.88
2023-05-09T16:33:18.955Z,100571.44
2023-05-09T16:35:49.236Z,100577.56
2023-05-09T16:38:16.624Z,100569.13
2023-05-09T16:40:43.943Z,100575.66
2023-05-09T16:43:12.057Z,100572.50
2023-05-09T16:45:39.325Z,100568.88
2023-05-09T16:48:07.030Z,100580.44
2023-05-09T16:50:34.450Z,100576.16
2023-05-09T16:53:02.087Z,100589.63
2023-05-09T16:55:29.308Z,100579.69
2023-05-09T16:57:56.597Z,100583.41
2023-05-09T17:00:24.004Z,100583.66
2023-05-09T17:02:51.444Z,100580.94
2023-05-09T17:05:19.175Z,100581.88
2023-05-09T17:07:46.434Z,100580.81
2023-05-09T17:10:14.166Z,100580.69
2023-05-09T17:12:42.042Z,100585.53
2023-05-09T17:15:09.878Z,100575.91
2023-05-09T17:17:37.215Z,100581.19
2023-05-09T17:20:04.892Z,100571.28
2023-05-09T17:22:32.138Z,100580.53
2023-05-09T17:24:59.544Z,100571.31
2023-05-09T17:27:27.119Z,100572.19
2023-05-09T17:29:54.387Z,100572.06
2023-05-09T17:32:21.676Z,100579.25
2023-05-09T17:34:49.109Z,100578.25
2023-05-09T17:37:17.231Z,100565.16
2023-05-09T17:39:44.641Z,100567.25
2023-05-09T17:42:12.800Z,100562.38
2023-05-09T17:44:41.416Z,100560.41
2023-05-09T17:47:10.364Z,100563.31
2023-05-09T17:49:37.727Z,100570.53
2023-05-09T17:52:05.447Z,100566.75
2023-05-09T17:54:32.984Z,100557.69
2023-05-09T17:57:01.846Z,100566.47
2023-05-09T17:59:29.654Z,100550.69
2023-05-09T18:01:57.020Z,100541.31
2023-05-09T18:04:25.727Z,100537.13
2023-05-09T18:06:53.480Z,100553.81
2023-05-09T18:09:22.154Z,100545.03
2023-05-09T18:11:49.458Z,100540.03
2023-05-09T18:14:16.960Z,100545.09
2023-05-09T18:16:44.157Z,100540.44
2023-05-09T18:19:11.666Z,100533.63
2023-05-09T18:21:39.358Z,100534.91
2023-05-09T18:24:09.081Z,100538.47
2023-05-09T18:26:36.531Z,100546.38
2023-05-09T18:29:04.054Z,100550.84
2023-05-09T18:31:31.744Z,100548.66
2023-05-09T18:33:58.994Z,100556.00
2023-05-09T18:36:29.050Z,100563.69
2023-05-09T18:38:56.365Z,100568.38
2023-05-09T18:41:24.808Z,100563.31
2023-05-09T18:43:52.783Z,100562.72
2023-05-09T18:46:21.215Z,100556.78
2023-05-09T18:48:51.162Z,100562.00
2023-05-09T18:51:19.020Z,100560.09
2023-05-09T18:53:49.873Z,100568.31
2023-05-09T18:56:18.919Z,100570.41
2023-05-09T18:58:48.767Z,100583.66
2023-05-09T19:01:16.706Z,100590.91
2023-05-09T19:03:46.094Z,100601.72
2023-05-09T19:06:14.126Z,100603.13
2023-05-09T19:08:42.460Z,100597.34
2023-05-09T19:11:11.795Z,100602.22
2023-05-09T19:13:40.822Z,100599.03
2023-05-09T19:16:08.874Z,100599.16
2023-05-09T19:18:36.183Z,100604.78
2023-05-09T19:21:03.754Z,100606.41
2023-05-09T19:23:31.027Z,100605.00
2023-05-09T19:25:58.789Z,100607.59
2023-05-09T19:28:26.085Z,100607.19
2023-05-09T19:30:53.368Z,100614.03
2023-05-09T19:33:20.647Z,100618.81
2023-05-09T19:35:48.028Z,100617.28
2023-05-09T19:38:15.488Z,100611.31
2023-05-09T19:40:42.788Z,100609.84
2023-05-09T19:43:10.381Z,100607.06
2023-05-09T19:45:37.657Z,100604.34
2023-05-09T19:48:05.185Z,100615.84
2023-05-09T19:50:32.609Z,100619.59
2023-05-09T19:52:59.886Z,100621.94
2023-05-09T19:55:27.280Z,100621.16
2023-05-09T19:57:54.498Z,100624.56
2023-05-09T20:00:21.822Z,100629.94
2023-05-09T20:02:49.881Z,100627.81
2023-05-09T20:05:17.219Z,100625.28
2023-05-09T20:07:44.584Z,100627.38
2023-05-09T20:10:15.585Z,100617.53
2023-05-09T20:12:43.788Z,100612.16
2023-05-09T20:15:12.077Z,100618.94
2023-05-09T20:17:39.313Z,100614.47
2023-05-09T20:20:06.988Z,100625.31
2023-05-09T20:22:34.425Z,100624.19
2023-05-09T20:25:01.843Z,100629.63
2023-05-09T20:27:29.118Z,100626.19
2023-05-09T20:29:56.661Z,100631.38
2023-05-09T20:32:24.332Z,100632.31
2023-05-09T20:34:51.537Z,100633.47
2023-05-09T20:37:18.689Z,100634.66
2023-05-09T20:39:46.743Z,100631.03
2023-05-09T20:42:13.930Z,100629.09
2023-05-09T20:44:42.151Z,100631.53
2023-05-09T20:47:09.369Z,100625.78
2023-05-09T20:49:36.535Z,100629.25
2023-05-09T20:52:04.012Z,100627.34
2023-05-09T20:54:31.246Z,100617.63
2023-05-09T20:56:58.736Z,100612.94
2023-05-09T20:59:25.877Z,100612.94
2023-05-09T21:01:55.534Z,100610.22
2023-05-09T21:04:23.110Z,100615.06
2023-05-09T21:06:50.328Z,100620.47
2023-05-09T21:09:18.377Z,100624.81
2023-05-09T21:11:46.022Z,100627.50
2023-05-09T21:14:13.374Z,100628.28
2023-05-09T21:16:40.670Z,100624.78
2023-05-09T21:19:08.741Z,100634.16
2023-05-09T21:21:36.028Z,100638.81
2023-05-09T21:24:04.316Z,100649.34
2023-05-09T21:26:31.500Z,100669.00
2023-05-09T21:28:58.741Z,100669.72
2023-05-09T21:31:26.578Z,100682.66
2023-05-09T21:33:53.840Z,100686.06
2023-05-09T21:36:21.221Z,100689.47
2023-05-09T21:38:48.441Z,100691.06
2023-05-09T21:41:15.870Z,100692.56
2023-05-09T21:43:43.007Z,100700.47
2023-05-09T21:46:10.276Z,100697.47
2023-05-09T21:48:37.453Z,100699.44
2023-05-09T21:51:04.851Z,100704.72
2023-05-09T21:53:32.084Z,100700.53
2023-05-09T21:55:59.318Z,100698.16
2023-05-09T21:58:26.472Z,100704.91
2023-05-09T22:00:53.665Z,100714.53
2023-05-09T22:03:21.026Z,100716.78
2023-05-09T22:05:48.413Z,100713.97
2023-05-09T22:08:15.570Z,100717.41
2023-05-09T22:10:42.958Z,100718.34
2023-05-09T22:13:10.260Z,100718.03
2023-05-09T22:15:37.422Z,100715.13
2023-05-09T22:18:04.829Z,100720.28
2023-05-09T22:20:32.028Z,100725.72
2023-05-09T22:22:59.491Z,100726.19
2023-05-09T22:25:26.675Z,100726.16
2023-05-09T22:27:55.529Z,100726.31
2023-05-09T22:30:22.818Z,100724.28
2023-05-09T22:32:50.286Z,100725.69
2023-05-09T22:35:17.455Z,100742.09
2023-05-09T22:37:44.944Z,100754.44
2023-05-09T22:40:14.292Z,100744.94
2023-05-09T22:42:41.919Z,100746.94
2023-05-09T22:45:09.525Z,100741.06
2023-05-09T22:47:36.974Z,100750.53
2023-05-09T22:50:04.776Z,100739.63
2023-05-09T22:52:32.044Z,100743.94
2023-05-09T22:54:59.366Z,100739.47
2023-05-09T22:57:26.635Z,100738.47
2023-05-09T22:59:53.985Z,100746.06
2023-05-09T23:02:21.683Z,100739.06
2023-05-09T23:04:49.051Z,100742.72
2023-05-09T23:07:16.292Z,100747.53
2023-05-09T23:09:44.310Z,100747.88
2023-05-09T23:12:11.698Z,100739.63
2023-05-09T23:14:39.173Z,100748.84
2023-05-09T23:17:06.657Z,100746.72
2023-05-09T23:19:33.869Z,100751.66
2023-05-09T23:22:01.384Z,100745.44
2023-05-09T23:24:28.710Z,100745.50
2023-05-09T23:26:56.144Z,100743.22
2023-05-09T23:29:23.571Z,100745.69
2023-05-09T23:31:51.047Z,100741.47
2023-05-09T23:34:18.853Z,100748.16
2023-05-09T23:36:46.139Z,100756.81
2023-05-09T23:39:13.418Z,100755.59
2023-05-09T23:41:40.615Z,100740.63
2023-05-09T23:44:07.870Z,100743.28
2023-05-09T23:46:35.109Z,100752.72
2023-05-09T23:49:02.352Z,100757.06
2023-05-09T23:51:29.582Z,100757.13
2023-05-09T23:53:57.003Z,100755.88
2023-05-09T23:56:25.320Z,100751.88
2023-05-09T23:58:52.588Z,100757.34
